createdAt,value
2023-04-04T00:00:57.060Z,10.60
2023-04-04T00:03:24.226Z,10.72
2023-04-04T00:05:51.820Z,10.64
2023-04-04T00:08:19.301Z,10.83
2023-04-04T00:10:46.430Z,10.50
2023-04-04T00:13:13.729Z,10.60
2023-04-04T00:15:43.918Z,10.67
2023-04-04T00:18:11.036Z,10.38
2023-04-04T00:20:38.327Z,10.45
2023-04-04T00:23:06.133Z,10.67
2023-04-04T00:25:33.514Z,10.59
2023-04-04T00:28:01.547Z,10.66
2023-04-04T00:30:32.657Z,10.69
2023-04-04T00:33:01.746Z,10.59
2023-04-04T00:35:28.960Z,10.42
2023-04-04T00:37:56.249Z,10.34
2023-04-04T00:40:23.845Z,10.21
2023-04-04T00:42:51.319Z,10.37
2023-04-04T00:45:18.865Z,10.47
2023-04-04T00:47:47.033Z,10.36
2023-04-04T00:50:14.391Z,10.32
2023-04-04T00:52:41.449Z,10.29
2023-04-04T00:55:08.976Z,10.44
2023-04-04T00:57:36.437Z,10.35
2023-04-04T01:00:06.666Z,10.41
2023-04-04T01:02:34.087Z,10.44
2023-04-04T01:05:02.132Z,10.49
2023-04-04T01:07:29.265Z,10.42
2023-04-04T01:09:58.190Z,10.38
2023-04-04T01:12:25.848Z,10.43
2023-04-04T01:14:52.841Z,10.27
2023-04-04T01:17:20.682Z,10.15
2023-04-04T01:20:09.173Z,10.42
2023-04-04T01:22:46.474Z,10.36
2023-04-04T01:25:15.038Z,10.29
2023-04-04T01:27:46.331Z,10.11
2023-04-04T01:30:17.904Z,10.12
2023-04-04T01:33:13.946Z,10.15
2023-04-04T01:36:12.361Z,10.22
2023-04-04T01:39:06.280Z,10.30
2023-04-04T01:41:35.399Z,10.29
2023-04-04T01:44:04.157Z,10.34
2023-04-04T01:46:32.338Z,10.32
2023-04-04T01:49:00.335Z,10.24
2023-04-04T01:51:31.905Z,10.37
2023-04-04T01:53:59.640Z,10.38
2023-04-04T01:56:26.786Z,10.30
2023-04-04T01:58:53.933Z,10.31
2023-04-04T02:01:21.312Z,10.28
2023-04-04T02:03:48.767Z,10.26
2023-04-04T02:06:16.197Z,10.36
2023-04-04T02:08:43.288Z,10.16
2023-04-04T02:11:12.286Z,10.04
2023-04-04T02:13:44.149Z,10.19
2023-04-04T02:16:13.566Z,10.12
2023-04-04T02:18:41.317Z,10.19
2023-04-04T02:21:08.917Z,10.02
2023-04-04T02:23:36.348Z,10.01
2023-04-04T02:26:04.057Z,9.79
2023-04-04T02:28:31.697Z,9.83
2023-04-04T02:31:02.686Z,9.98
2023-04-04T02:33:30.614Z,9.86
2023-04-04T02:36:02.798Z,9.85
2023-04-04T02:38:30.709Z,9.83
2023-04-04T02:40:59.725Z,9.98
2023-04-04T02:43:26.775Z,9.91
2023-04-04T02:45:54.530Z,9.84
2023-04-04T02:48:25.701Z,9.85
2023-04-04T02:50:55.092Z,9.64
2023-04-04T02:53:22.592Z,9.78
2023-04-04T02:55:52.580Z,9.55
2023-04-04T02:58:20.123Z,9.36
2023-04-04T03:00:53.420Z,9.42
2023-04-04T03:03:21.528Z,9.84
2023-04-04T03:05:50.281Z,9.80
2023-04-04T03:08:17.770Z,9.83
2023-04-04T03:10:46.561Z,9.94
2023-04-04T03:13:13.763Z,9.78
2023-04-04T03:15:41.115Z,9.73
2023-04-04T03:18:08.921Z,9.70
2023-04-04T03:20:36.047Z,9.59
2023-04-04T03:23:03.425Z,9.75
2023-04-04T03:25:30.570Z,9.65
2023-04-04T03:27:57.627Z,9.70
2023-04-04T03:30:27.084Z,9.67
2023-04-04T03:32:55.254Z,9.70
2023-04-04T03:35:22.288Z,9.66
2023-04-04T03:37:49.267Z,9.72
2023-04-04T03:40:17.120Z,9.78
2023-04-04T03:42:44.702Z,9.70
2023-04-04T03:45:15.225Z,9.66
2023-04-04T03:47:43.297Z,9.52
2023-04-04T03:50:10.678Z,9.67
2023-04-04T03:52:41.058Z,9.55
2023-04-04T03:55:08.816Z,9.54
2023-04-04T03:57:36.304Z,9.47
2023-04-04T04:00:06.025Z,9.52
2023-04-04T04:02:39.967Z,9.38
2023-04-04T04:05:09.217Z,9.40
2023-04-04T04:07:36.793Z,9.57
2023-04-04T04:10:05.320Z,9.49
2023-04-04T04:12:33.169Z,9.34
2023-04-04T04:15:00.543Z,9.37
2023-04-04T04:17:29.848Z,9.41
2023-04-04T04:19:57.632Z,9.39
2023-04-04T04:22:26.095Z,9.20
2023-04-04T04:24:53.509Z,9.28
2023-04-04T04:27:21.127Z,9.28
2023-04-04T04:29:48.274Z,9.22
2023-04-04T04:32:19.119Z,9.41
2023-04-04T04:34:50.360Z,9.27
2023-04-04T04:37:22.999Z,9.21
2023-04-04T04:39:53.471Z,9.20
2023-04-04T04:42:32.434Z,9.14
2023-04-04T04:45:01.823Z,9.09
2023-04-04T04:50:25.104Z,8.84
2023-04-04T04:52:56.892Z,9.09
2023-04-04T04:55:25.536Z,9.11
2023-04-04T04:58:04.318Z,8.71
2023-04-04T05:00:32.488Z,8.75
2023-04-04T05:03:02.978Z,8.64
2023-04-04T05:05:37.775Z,8.70
2023-04-04T05:08:09.175Z,8.70
2023-04-04T05:10:41.092Z,8.80
2023-04-04T05:13:09.997Z,8.66
2023-04-04T05:15:47.056Z,8.60
2023-04-04T05:18:15.092Z,8.68
2023-04-04T05:20:43.559Z,8.71
2023-04-04T05:23:13.806Z,8.81
2023-04-04T05:25:42.946Z,8.67
2023-04-04T05:28:11.211Z,8.75
2023-04-04T05:30:39.318Z,8.81
2023-04-04T05:33:14.338Z,8.63
2023-04-04T05:35:47.172Z,8.70
2023-04-04T05:38:15.879Z,8.72
2023-04-04T05:40:46.043Z,9.00
2023-04-04T05:43:15.250Z,8.83
2023-04-04T05:46:02.976Z,8.74
2023-04-04T05:48:36.647Z,8.67
2023-04-04T05:51:04.042Z,8.79
2023-04-04T05:53:42.010Z,8.80
2023-04-04T05:56:09.964Z,8.62
2023-04-04T05:58:37.335Z,8.61
2023-04-04T06:01:11.028Z,8.90
2023-04-04T06:03:39.589Z,8.72
2023-04-04T06:06:11.768Z,8.87
2023-04-04T06:08:50.606Z,8.71
2023-04-04T06:11:22.482Z,8.94
2023-04-04T06:13:51.412Z,9.13
2023-04-04T06:16:20.981Z,9.21
2023-04-04T06:18:49.216Z,8.96
2023-04-04T06:21:16.573Z,8.99
2023-04-04T06:23:43.534Z,8.98
2023-04-04T06:26:10.864Z,9.16
2023-04-04T06:28:50.045Z,9.33
2023-04-04T06:31:27.804Z,9.15
2023-04-04T06:34:01.405Z,8.95
2023-04-04T06:36:31.145Z,8.69
2023-04-04T06:39:02.180Z,8.74
2023-04-04T06:41:29.896Z,9.00
2023-04-04T06:43:58.032Z,9.32
2023-04-04T06:46:27.041Z,8.30
2023-04-04T06:48:54.877Z,8.87
2023-04-04T06:51:22.313Z,9.07
2023-04-04T06:53:50.345Z,8.36
2023-04-04T06:56:17.685Z,8.88
2023-04-04T06:58:45.681Z,8.71
2023-04-04T07:01:15.814Z,8.91
2023-04-04T07:03:44.536Z,8.87
2023-04-04T07:06:12.133Z,8.53
2023-04-04T07:08:41.589Z,8.76
2023-04-04T07:11:08.630Z,8.77
2023-04-04T07:13:35.938Z,8.76
2023-04-04T07:16:03.357Z,8.31
2023-04-04T07:18:30.459Z,8.07
2023-04-04T07:20:58.415Z,8.32
2023-04-04T07:23:26.042Z,8.70
2023-04-04T07:25:56.273Z,8.46
2023-04-04T07:28:23.683Z,8.16
2023-04-04T07:30:51.151Z,8.50
2023-04-04T07:33:18.463Z,8.19
2023-04-04T07:35:45.770Z,8.39
2023-04-04T07:38:13.309Z,8.29
2023-04-04T07:40:41.070Z,8.24
2023-04-04T07:43:08.611Z,8.41
2023-04-04T07:45:36.289Z,8.25
2023-04-04T07:48:03.754Z,8.56
2023-04-04T07:50:31.266Z,8.36
2023-04-04T07:52:58.700Z,8.70
2023-04-04T07:55:29.209Z,8.69
2023-04-04T07:57:58.355Z,8.63
2023-04-04T08:00:26.516Z,8.61
2023-04-04T08:02:55.584Z,8.85
2023-04-04T08:05:23.980Z,8.25
2023-04-04T08:07:51.352Z,8.57
2023-04-04T08:10:19.061Z,8.58
2023-04-04T08:12:46.525Z,8.89
2023-04-04T08:15:13.724Z,8.92
2023-04-04T08:17:43.229Z,8.58
2023-04-04T08:20:11.215Z,8.56
2023-04-04T08:22:40.861Z,8.70
2023-04-04T08:25:08.715Z,9.01
2023-04-04T08:27:36.040Z,8.65
2023-04-04T08:30:04.130Z,8.46
2023-04-04T08:32:32.078Z,8.78
2023-04-04T08:34:59.522Z,8.82
2023-04-04T08:37:29.198Z,9.02
2023-04-04T08:39:56.152Z,8.79
2023-04-04T08:42:24.767Z,8.51
2023-04-04T08:44:55.171Z,9.01
2023-04-04T08:47:24.415Z,9.20
2023-04-04T08:49:52.216Z,8.86
2023-04-04T08:52:23.521Z,9.00
2023-04-04T08:54:52.437Z,8.86
2023-04-04T08:57:19.789Z,8.88
2023-04-04T08:59:48.242Z,9.13
2023-04-04T09:02:22.618Z,9.01
2023-04-04T09:05:02.661Z,9.22
2023-04-04T09:07:33.069Z,9.01
2023-04-04T09:10:00.562Z,9.39
2023-04-04T09:12:28.213Z,9.28
2023-04-04T09:14:56.826Z,9.11
2023-04-04T09:17:24.238Z,9.17
2023-04-04T09:19:54.208Z,9.14
2023-04-04T09:22:21.850Z,8.84
2023-04-04T09:24:51.663Z,9.04
2023-04-04T09:27:19.282Z,9.29
2023-04-04T09:29:47.437Z,9.81
2023-04-04T09:32:16.353Z,10.00
2023-04-04T09:34:45.164Z,9.07
2023-04-04T09:37:15.377Z,9.32
2023-04-04T09:39:43.563Z,9.64
2023-04-04T09:42:11.437Z,9.79
2023-04-04T09:44:39.445Z,9.31
2023-04-04T09:47:31.862Z,9.65
2023-04-04T09:50:03.979Z,10.29
2023-04-04T09:52:37.578Z,10.25
2023-04-04T09:55:06.677Z,9.52
2023-04-04T09:57:36.170Z,9.51
2023-04-04T10:00:09.068Z,9.63
2023-04-04T10:02:39.417Z,9.22
2023-04-04T10:05:10.391Z,9.65
2023-04-04T10:07:40.384Z,10.25
2023-04-04T10:10:11.366Z,10.24
2023-04-04T10:12:38.890Z,10.44
2023-04-04T10:15:06.894Z,9.68
2023-04-04T10:17:41.894Z,10.20
2023-04-04T10:20:10.495Z,9.79
2023-04-04T10:22:38.684Z,9.76
2023-04-04T10:25:07.446Z,9.86
2023-04-04T10:27:35.172Z,10.51
2023-04-04T10:30:03.211Z,10.26
2023-04-04T10:33:03.402Z,10.17
2023-04-04T10:35:31.573Z,10.04
2023-04-04T10:38:00.620Z,10.56
2023-04-04T10:40:35.839Z,10.52
2023-04-04T10:43:04.875Z,9.81
2023-04-04T10:45:33.262Z,9.58
2023-04-04T10:48:04.215Z,9.35
2023-04-04T10:50:33.591Z,9.86
2023-04-04T10:53:02.201Z,10.26
2023-04-04T10:55:29.896Z,9.92
2023-04-04T10:57:57.348Z,10.00
2023-04-04T11:00:25.415Z,10.40
2023-04-04T11:03:02.695Z,10.51
2023-04-04T11:05:51.077Z,10.68
2023-04-04T11:08:22.296Z,10.71
2023-04-04T11:10:51.639Z,10.84
2023-04-04T11:13:35.618Z,11.03
2023-04-04T11:16:15.547Z,11.32
2023-04-04T11:18:43.514Z,9.84
2023-04-04T11:21:23.950Z,9.20
2023-04-04T11:24:13.622Z,9.54
2023-04-04T11:26:43.183Z,12.38
2023-04-04T11:29:22.442Z,13.05
2023-04-04T11:31:50.880Z,10.90
2023-04-04T11:34:31.972Z,10.63
2023-04-04T11:37:01.999Z,12.61
2023-04-04T11:39:33.762Z,15.75
2023-04-04T11:42:11.952Z,17.17
2023-04-04T11:44:52.826Z,14.22
2023-04-04T11:47:21.092Z,14.05
2023-04-04T11:49:48.694Z,17.37
2023-04-04T11:52:17.730Z,19.01
2023-04-04T11:54:47.201Z,16.77
2023-04-04T11:57:16.910Z,18.41
2023-04-04T11:59:47.624Z,17.28
2023-04-04T12:02:34.180Z,18.74
2023-04-04T12:05:02.065Z,18.62
2023-04-04T12:07:29.792Z,19.24
2023-04-04T12:09:57.853Z,17.60
2023-04-04T12:12:26.548Z,17.79
2023-04-04T12:15:00.199Z,18.08
2023-04-04T12:17:34.757Z,18.35
2023-04-04T12:20:02.308Z,19.21
2023-04-04T12:22:35.507Z,20.31
2023-04-04T12:25:03.535Z,20.71
2023-04-04T12:27:30.944Z,20.66
2023-04-04T12:30:00.602Z,21.42
2023-04-04T12:32:28.254Z,18.39
2023-04-04T12:35:01.226Z,19.37
2023-04-04T12:37:31.252Z,20.08
2023-04-04T12:39:58.697Z,22.40
2023-04-04T12:42:26.807Z,20.44
2023-04-04T12:44:54.749Z,19.97
2023-04-04T12:47:24.092Z,20.52
2023-04-04T12:49:57.162Z,23.15
2023-04-04T12:52:32.130Z,23.11
2023-04-04T12:55:08.857Z,22.65
2023-04-04T12:57:38.621Z,22.97
2023-04-04T13:00:09.310Z,22.68
2023-04-04T13:02:38.512Z,21.39
2023-04-04T13:05:07.217Z,21.67
2023-04-04T13:07:44.134Z,20.91
2023-04-04T13:10:14.855Z,21.12
2023-04-04T13:13:00.156Z,21.13
2023-04-04T13:15:51.526Z,23.27
2023-04-04T13:18:26.407Z,24.20
2023-04-04T13:20:54.397Z,24.05
2023-04-04T13:23:22.844Z,26.00
2023-04-04T13:25:50.109Z,24.25
2023-04-04T13:28:17.730Z,24.00
2023-04-04T13:30:49.046Z,21.90
2023-04-04T13:33:17.644Z,22.24
2023-04-04T13:35:46.055Z,22.70
2023-04-04T13:38:13.089Z,23.41
2023-04-04T13:40:40.733Z,24.30
2023-04-04T13:43:08.253Z,25.09
2023-04-04T13:45:36.101Z,24.64
2023-04-04T13:48:04.141Z,24.39
2023-04-04T13:50:32.943Z,25.20
2023-04-04T13:53:00.513Z,22.97
2023-04-04T13:55:28.124Z,23.03
2023-04-04T13:57:55.533Z,22.93
2023-04-04T14:00:28.796Z,21.69
2023-04-04T14:02:57.193Z,21.49
2023-04-04T14:05:24.698Z,22.23
2023-04-04T14:07:52.010Z,20.94
2023-04-04T14:10:19.728Z,18.02
2023-04-04T14:12:47.286Z,17.10
2023-04-04T14:15:14.714Z,15.10
2023-04-04T14:17:42.667Z,14.40
2023-04-04T14:20:10.694Z,14.18
2023-04-04T14:22:38.097Z,15.37
2023-04-04T14:25:05.442Z,16.07
2023-04-04T14:27:32.791Z,15.17
2023-04-04T14:30:00.261Z,14.42
2023-04-04T14:32:28.018Z,13.70
2023-04-04T14:34:55.662Z,13.78
2023-04-04T14:37:23.224Z,12.93
2023-04-04T14:39:50.677Z,12.96
2023-04-04T14:42:17.622Z,13.17
2023-04-04T14:44:44.999Z,14.60
2023-04-04T14:47:12.307Z,14.06
2023-04-04T14:49:39.635Z,14.80
2023-04-04T14:52:07.113Z,14.49
2023-04-04T14:54:34.828Z,15.41
2023-04-04T14:57:02.244Z,15.97
2023-04-04T14:59:29.929Z,15.91
2023-04-04T15:01:57.620Z,15.54
2023-04-04T15:04:25.064Z,15.09
2023-04-04T15:06:53.476Z,14.88
2023-04-04T15:09:21.630Z,15.04
2023-04-04T15:11:49.712Z,15.25
2023-04-04T15:14:17.226Z,15.20
2023-04-04T15:16:44.661Z,14.36
2023-04-04T15:19:13.778Z,14.78
2023-04-04T15:21:41.579Z,13.44
2023-04-04T15:24:09.031Z,13.54
2023-04-04T15:26:36.393Z,14.42
2023-04-04T15:29:05.044Z,14.86
2023-04-04T15:31:32.178Z,13.38
2023-04-04T15:34:00.663Z,14.21
2023-04-04T15:36:28.979Z,14.29
2023-04-04T15:38:56.683Z,14.99
2023-04-04T15:41:24.262Z,14.39
2023-04-04T15:43:51.448Z,14.72
2023-04-04T15:46:18.470Z,14.44
2023-04-04T15:48:47.867Z,14.50
2023-04-04T15:51:15.699Z,14.36
2023-04-04T15:53:43.126Z,13.33
2023-04-04T15:56:10.826Z,13.86
2023-04-04T15:58:38.252Z,12.82
2023-04-04T16:01:07.564Z,12.97
2023-04-04T16:03:35.155Z,13.28
2023-04-04T16:06:02.781Z,13.64
2023-04-04T16:08:30.631Z,14.38
2023-04-04T16:10:58.378Z,14.44
2023-04-04T16:13:25.344Z,14.26
2023-04-04T16:15:52.830Z,13.73
2023-04-04T16:18:20.217Z,13.93
2023-04-04T16:20:47.193Z,14.21
2023-04-04T16:23:14.577Z,13.54
2023-04-04T16:25:43.333Z,13.69
2023-04-04T16:28:11.174Z,14.25
2023-04-04T16:30:39.102Z,14.52
2023-04-04T16:33:06.833Z,13.44
2023-04-04T16:35:34.632Z,13.58
2023-04-04T16:38:02.009Z,13.81
2023-04-04T16:40:29.326Z,13.92
2023-04-04T16:42:56.822Z,13.99
2023-04-04T16:45:24.265Z,13.78
2023-04-04T16:47:52.216Z,13.58
2023-04-04T16:50:19.698Z,13.79
2023-04-04T16:52:47.058Z,13.58
2023-04-04T16:55:14.385Z,13.31
2023-04-04T16:57:42.838Z,13.46
2023-04-04T17:00:10.979Z,13.41
2023-04-04T17:02:45.047Z,13.34
2023-04-04T17:05:16.117Z,13.70
2023-04-04T17:07:44.056Z,13.34
2023-04-04T17:10:12.287Z,13.64
2023-04-04T17:12:39.818Z,13.62
2023-04-04T17:15:08.074Z,13.85
2023-04-04T17:17:35.652Z,13.78
2023-04-04T17:20:03.577Z,14.08
2023-04-04T17:22:31.747Z,13.41
2023-04-04T17:24:59.134Z,13.10
2023-04-04T17:27:26.590Z,13.22
2023-04-04T17:29:54.042Z,13.39
2023-04-04T17:32:21.460Z,13.05
2023-04-04T17:34:48.836Z,13.45
2023-04-04T17:37:16.216Z,13.55
2023-04-04T17:39:45.266Z,13.56
2023-04-04T17:42:12.891Z,13.32
2023-04-04T17:44:40.418Z,13.72
2023-04-04T17:47:08.489Z,13.63
2023-04-04T17:49:37.122Z,13.45
2023-04-04T17:52:04.614Z,13.52
2023-04-04T17:54:31.888Z,13.57
2023-04-04T17:56:59.261Z,13.30
2023-04-04T17:59:27.906Z,13.14
2023-04-04T18:01:56.425Z,13.54
2023-04-04T18:04:25.443Z,13.41
2023-04-04T18:06:54.382Z,13.87
2023-04-04T18:09:22.618Z,13.68
2023-04-04T18:11:50.191Z,13.70
2023-04-04T18:14:18.094Z,13.63
2023-04-04T18:16:46.970Z,13.76
2023-04-04T18:19:14.502Z,13.32
2023-04-04T18:21:41.902Z,13.78
2023-04-04T18:24:11.286Z,13.72
2023-04-04T18:26:38.820Z,13.53
2023-04-04T18:29:06.722Z,13.69
2023-04-04T18:31:34.223Z,13.57
2023-04-04T18:34:01.903Z,13.58
2023-04-04T18:36:29.279Z,13.69
2023-04-04T18:38:56.772Z,13.67
2023-04-04T18:41:24.993Z,13.62
2023-04-04T18:43:53.038Z,13.60
2023-04-04T18:46:20.548Z,13.46
2023-04-04T18:48:48.291Z,13.33
2023-04-04T18:51:15.711Z,13.32
2023-04-04T18:53:42.725Z,13.29
2023-04-04T18:56:09.850Z,13.33
2023-04-04T18:58:37.202Z,13.30
2023-04-04T19:01:05.129Z,13.30
2023-04-04T19:03:42.567Z,13.34
2023-04-04T19:06:12.855Z,13.38
2023-04-04T19:08:41.592Z,13.11
2023-04-04T19:11:09.702Z,13.06
2023-04-04T19:13:37.049Z,12.91
2023-04-04T19:16:05.268Z,13.01
2023-04-04T19:18:32.769Z,12.80
2023-04-04T19:21:00.176Z,12.68
2023-04-04T19:23:27.793Z,12.72
2023-04-04T19:25:55.929Z,12.54
2023-04-04T19:28:26.784Z,12.66
2023-04-04T19:30:55.571Z,12.66
2023-04-04T19:33:25.655Z,12.72
2023-04-04T19:36:11.209Z,12.88
2023-04-04T19:38:42.284Z,12.68
2023-04-04T19:41:39.251Z,12.74
2023-04-04T19:44:20.999Z,12.50
2023-04-04T19:46:48.653Z,12.39
2023-04-04T19:49:16.655Z,12.20
2023-04-04T19:51:55.936Z,12.36
2023-04-04T19:54:27.757Z,12.17
2023-04-04T19:57:03.302Z,12.34
2023-04-04T20:00:13.444Z,12.47
2023-04-04T20:02:52.747Z,12.21
2023-04-04T20:05:28.751Z,12.18
2023-04-04T20:07:56.293Z,11.87
2023-04-04T20:10:38.946Z,12.11
2023-04-04T20:13:07.368Z,11.97
2023-04-04T20:15:47.481Z,12.27
2023-04-04T20:18:26.401Z,12.11
2023-04-04T20:21:06.814Z,12.32
2023-04-04T20:24:13.429Z,12.35
2023-04-04T20:26:59.977Z,11.99
2023-04-04T20:29:30.706Z,12.00
2023-04-04T20:32:08.934Z,12.01
2023-04-04T20:34:49.941Z,12.18
2023-04-04T20:37:26.354Z,12.04
2023-04-04T20:40:04.417Z,11.87
2023-04-04T20:42:38.255Z,11.85
2023-04-04T20:45:27.995Z,11.97
2023-04-04T20:48:00.624Z,11.74
2023-04-04T20:50:28.143Z,11.61
2023-04-04T20:53:04.731Z,11.82
2023-04-04T20:55:34.268Z,11.78
2023-04-04T20:58:28.538Z,11.76
2023-04-04T21:01:00.150Z,11.68
2023-04-04T21:03:29.894Z,11.57
2023-04-04T21:06:16.709Z,11.73
2023-04-04T21:08:46.752Z,11.55
2023-04-04T21:11:24.663Z,11.62
2023-04-04T21:13:52.329Z,11.56
2023-04-04T21:16:26.804Z,11.62
2023-04-04T21:19:01.460Z,11.54
2023-04-04T21:21:29.434Z,11.18
2023-04-04T21:23:59.223Z,11.25
2023-04-04T21:26:34.619Z,11.26
2023-04-04T21:29:08.096Z,11.24
2023-04-04T21:31:43.040Z,11.39
2023-04-04T21:34:15.143Z,11.46
2023-04-04T21:36:43.171Z,11.34
2023-04-04T21:39:19.455Z,11.37
2023-04-04T21:41:47.185Z,11.37
2023-04-04T21:44:14.763Z,11.20
2023-04-04T21:46:42.455Z,11.06
2023-04-04T21:49:10.211Z,11.06
2023-04-04T21:51:37.758Z,11.09
2023-04-04T21:54:05.374Z,11.13
2023-04-04T21:56:32.786Z,11.16
2023-04-04T21:59:02.135Z,11.20
2023-04-04T22:01:30.605Z,10.95
2023-04-04T22:03:58.565Z,11.03
2023-04-04T22:06:27.217Z,10.81
2023-04-04T22:08:56.288Z,10.75
2023-04-04T22:11:25.792Z,10.96
2023-04-04T22:14:03.097Z,10.92
2023-04-04T22:16:31.167Z,10.83
2023-04-04T22:19:01.024Z,10.84
2023-04-04T22:21:28.608Z,10.68
2023-04-04T22:24:05.964Z,10.72
2023-04-04T22:26:33.870Z,10.69
2023-04-04T22:29:03.461Z,10.71
2023-04-04T22:31:34.116Z,10.68
2023-04-04T22:34:03.187Z,10.54
2023-04-04T22:36:31.008Z,10.45
2023-04-04T22:38:58.613Z,10.59
2023-04-04T22:41:31.780Z,10.99
2023-04-04T22:43:59.278Z,10.44
2023-04-04T22:46:29.233Z,10.48
2023-04-04T22:49:05.721Z,10.48
2023-04-04T22:51:43.113Z,10.50
2023-04-04T22:54:14.231Z,10.44
2023-04-04T22:56:42.114Z,10.30
2023-04-04T22:59:09.776Z,10.21
2023-04-04T23:01:37.340Z,10.27
2023-04-04T23:04:04.749Z,10.50
2023-04-04T23:06:32.394Z,10.30
2023-04-04T23:08:59.693Z,10.26
2023-04-04T23:11:27.340Z,10.31
2023-04-04T23:13:57.011Z,10.29
2023-04-04T23:16:26.424Z,10.38
2023-04-04T23:18:54.068Z,10.39
2023-04-04T23:21:21.994Z,10.24
2023-04-04T23:23:49.684Z,10.33
2023-04-04T23:26:17.096Z,10.43
2023-04-04T23:28:44.491Z,10.28
2023-04-04T23:31:11.894Z,10.25
2023-04-04T23:33:39.261Z,10.26
2023-04-04T23:36:07.104Z,10.05
2023-04-04T23:38:34.736Z,9.98
2023-04-04T23:41:02.393Z,10.06
2023-04-04T23:43:29.785Z,10.01
2023-04-04T23:45:57.222Z,10.00
2023-04-04T23:48:24.715Z,10.05
2023-04-04T23:50:54.535Z,10.11
2023-04-04T23:53:24.792Z,9.94
2023-04-04T23:55:52.261Z,10.00
2023-04-04T23:58:19.767Z,10.14
